NCAR-RAP Real-Time Weather Data

Output produced by METARs form (17 September 2019  16:15 UTC)
found at http://weather.rap.ucar.edu/surface/
 
KBOS 171554Z 04012KT 10SM SCT049 20/09 A3013 RMK AO2 SLP203 T02000089
KBOS 171454Z 02010KT 10SM FEW050 FEW065 21/08 A3013 RMK AO2 SLP200 T02060078 51007
KBOS 171354Z 34009G15KT 10SM FEW065 19/08 A3012 RMK AO2 SLP199 T01940078
KBOS 171254Z 32011KT 10SM FEW060 18/07 A3011 RMK AO2 SLP196 T01780072
KBOS 171154Z 32011KT 10SM FEW060 FEW250 16/07 A3010 RMK AO2 SLP193 T01610072 10161 20150 53015
KBOS 171054Z 30009KT 10SM FEW060 FEW250 15/07 A3009 RMK AO2 SLP190 T01500067
KBOS 170954Z 31008KT 10SM FEW065 15/07 A3007 RMK AO2 SLP181 T01500067
KBOS 170854Z 29008KT 10SM FEW065 15/07 A3006 RMK AO2 SLP179 T01500067 56004
KBOS 170754Z 30007KT 10SM FEW065 16/07 A3006 RMK AO2 SLP178 T01560072
KBOS 170654Z 30008KT 10SM FEW065 16/07 A3007 RMK AO2 SLP183 T01560072
KBOS 170554Z 32008KT 10SM FEW065 16/07 A3007 RMK AO2 SLP183 T01610072 10200 20161 51004
KBOS 170454Z 31010KT 10SM FEW065 17/08 A3007 RMK AO2 SLP182 T01670078 402390167
KBOS 170354Z 31007KT 250V330 10SM FEW065 17/08 A3006 RMK AO2 SLP180 T01720078
KBOS 170254Z 34007KT 10SM FEW065 18/07 A3006 RMK AO2 SLP179 T01780072 51010
KBOS 170054Z 34006KT 10SM FEW070 19/08 A3004 RMK AO2 SLP173 T01940078
KBOS 162354Z 36006KT 10SM FEW065 20/07 A3003 RMK AO2 SLP169 T02000072 10239 20194 53015
KBOS 162254Z 35007KT 10SM FEW065 21/08 A3001 RMK AO2 SLP162 T02110078
KBOS 162154Z 34007G15KT 10SM FEW065 22/08 A3000 RMK AO2 SLP158 T02220078
KBOS 162054Z 35009G18KT 10SM FEW065 FEW140 23/07 A2999 RMK AO2 SLP154 T02280072 56007
KBOS 161954Z COR 30009KT 10SM FEW060 SCT140 23/07 A2999 RMK AO2 SLP156 T02280072
KBOS 161854Z 30011KT 10SM FEW050 SCT140 23/07 A3000 RMK AO2 SLP157 T02330072